ButlerWeather Station
Hourly Leaf Wetness Data

Source: University of Missouri

To the bottom of the page

Year Month Day Hour Leaf Wetness Total
Precipitation
Avg. Temp Avg. Rel.
Humidity
Wind
Speed
CST mV in mm F C % mph
2023 05 10 1:00 266.8 0.0 0.00 62.1 16.7 82.5 n/a
2023 05 10 2:00 Wet 298.0 0.0 0.00 60.4 15.8 87.4 n/a
2023 05 10 3:00 Wet 349.9 0.0 0.00 59.9 15.5 90.5 n/a
2023 05 10 4:00 Wet 418.8 0.0 0.00 59.4 15.2 95.7 n/a
2023 05 10 5:00 Wet 447.2 0.0 0.00 59.1 15.0 96.4 n/a
2023 05 10 6:00 Wet 447.5 0.0 0.00 58.9 15.0 96.4 n/a
2023 05 10 7:00 Wet 341.0 0.0 0.00 60.9 16.0 89.7 n/a
2023 05 10 8:00 259.5 0.0 0.00 65.4 18.6 80.2 n/a
2023 05 10 9:00 258.9 0.0 0.00 68.2 20.1 73.85 n/a
2023 05 10 10:00 258.2 0.0 0.00 70.1 21.1 72.2 n/a
2023 05 10 11:00 258.7 0.0 0.00 71.0 21.6 72.14 n/a
2023 05 10 12:00 258.0 0.0 0.00 73.0 22.8 70.82 n/a
2023 05 10 13:00 257.9 0.0 0.00 75.0 23.9 68.51 n/a
2023 05 10 14:00 257.5 0.0 0.00 76.7 24.8 65.25 n/a
2023 05 10 15:00 257.2 0.0 0.00 78.3 25.7 59.46 n/a
2023 05 10 16:00 257.3 0.0 0.00 79.1 26.1 56.78 n/a
2023 05 10 17:00 257.7 0.0 0.00 79.1 26.2 57.31 n/a
2023 05 10 18:00 257.9 0.0 0.00 79.1 26.2 57.04 n/a
2023 05 10 19:00 258.1 0.0 0.00 78.2 25.6 61.08 n/a
2023 05 10 20:00 259.3 0.0 0.00 75.8 24.3 64.23 n/a
2023 05 10 21:00 258.8 0.0 0.00 72.8 22.6 60.4 n/a
2023 05 10 22:00 259.4 0.0 0.00 68.1 20.0 68.43 n/a
2023 05 10 23:00 260.1 0.0 0.00 66.3 19.1 72.77 n/a
2023 05 10 24:00 260.8 0.0 0.00 65.2 18.4 76.36 n/a
2023 05 11 1:00 261.4 0.0 0.00 64.4 18.0 78.47 n/a
2023 05 11 2:00 262.4 0.0 0.00 63.3 17.4 81.9 n/a
2023 05 11 3:00 262.8 0.0 0.00 62.7 17.0 84.6 n/a
2023 05 11 4:00 262.0 0.0 0.00 63.4 17.4 83.6 n/a
2023 05 11 5:00 Wet 327.8 0.0 0.00 63.9 17.7 83.2 n/a
2023 05 11 6:00 Wet 382.0 0.0 0.00 63.7 17.6 87.1 n/a
2023 05 11 7:00 Wet 455.5 0.0 0.00 64.2 17.9 89.1 n/a
2023 05 11 8:00 Wet 530.5 0.0 0.51 64.5 18.1 95 n/a
2023 05 11 9:00 Wet 503.8 0.1 2.79 64.9 18.3 96.1 n/a
2023 05 11 10:00 Wet 583.8 0.3 6.60 64.6 18.1 97.2 n/a
2023 05 11 11:00 Wet 513.7 0.1 3.30 65.0 18.3 98.1 n/a
2023 05 11 12:00 Wet 365.3 0.0 0.25 66.5 19.2 97.2 n/a
2023 05 11 13:00 274.1 0.0 0.00 68.3 20.2 88.6 n/a
2023 05 11 14:00 Wet 290.6 0.0 0.00 69.7 20.9 85.4 n/a
2023 05 11 15:00 260.2 0.0 0.00 70.3 21.3 81.7 n/a
2023 05 11 16:00 260.2 0.0 0.00 71.5 22.0 78.43 n/a
2023 05 11 17:00 260.0 0.0 0.00 72.2 22.3 75.42 n/a
2023 05 11 18:00 260.0 0.0 0.00 72.5 22.5 75.73 n/a
2023 05 11 19:00 260.6 0.0 0.00 72.0 22.2 77.44 n/a
2023 05 11 20:00 263.3 0.0 0.00 70.5 21.4 82.1 n/a
2023 05 11 21:00 273.7 0.0 0.00 68.6 20.3 87 n/a
2023 05 11 22:00 279.4 0.0 0.00 67.7 19.9 88.9 n/a
2023 05 11 23:00 267.6 0.0 0.00 68.2 20.1 88.2 n/a
2023 05 11 24:00 283.4 0.0 0.00 67.4 19.7 90.6 n/a
2023 05 12 1:00 Wet 318.0 0.0 0.00 66.5 19.2 96.3 n/a
2023 05 12 2:00 Wet 328.8 0.0 0.00 66.4 19.1 96.9 n/a
2023 05 12 3:00 277.8 0.0 0.00 66.8 19.3 94.3 n/a
2023 05 12 4:00 Wet 301.8 0.0 0.00 67.2 19.6 88.6 n/a
2023 05 12 5:00 Wet 500.5 0.1 1.52 63.5 17.5 82.8 n/a
2023 05 12 6:00 Wet 363.1 0.0 0.00 61.4 16.3 90.6 n/a
2023 05 12 7:00 Wet 298.4 0.0 0.00 62.5 17.0 90 n/a
2023 05 12 8:00 261.8 0.0 0.00 65.7 18.7 82 n/a
2023 05 12 9:00 260.3 0.0 0.00 69.4 20.8 78.58 n/a
2023 05 12 10:00 260.3 0.0 0.00 71.2 21.8 78.18 n/a
2023 05 12 11:00 260.0 0.0 0.00 73.4 23.0 76.44 n/a
2023 05 12 12:00 259.9 0.0 0.00 74.6 23.7 75.17 n/a
2023 05 12 13:00 258.8 0.0 0.00 76.4 24.6 70.52 n/a
2023 05 12 14:00 259.2 0.0 0.00 76.3 24.6 70.76 n/a
2023 05 12 15:00 259.3 0.0 0.00 77.3 25.1 72.27 n/a
2023 05 12 16:00 259.3 0.0 0.00 78.3 25.7 71.14 n/a
2023 05 12 17:00 259.4 0.0 0.00 79.2 26.2 69.96 n/a
2023 05 12 18:00 259.3 0.0 0.00 79.3 26.3 68.79 n/a
2023 05 12 19:00 260.2 0.0 0.00 77.8 25.5 70.2 n/a
2023 05 12 20:00 261.1 0.0 0.00 75.5 24.1 75.64 n/a
2023 05 12 21:00 261.5 0.0 0.00 74.4 23.6 78.06 n/a
2023 05 12 22:00 261.9 0.0 0.00 73.7 23.2 79.99 n/a
2023 05 12 23:00 261.6 0.0 0.00 73.7 23.2 80.1 n/a
2023 05 12 24:00 261.8 0.0 0.00 73.1 22.8 81.1 n/a
2023 05 13 1:00 Wet 296.6 0.0 0.00 72.6 22.6 82.2 n/a
2023 05 13 2:00 Wet 460.9 0.1 1.27 70.5 21.4 77.6 n/a
2023 05 13 3:00 Wet 335.6 0.0 0.76 68.2 20.1 61.38 n/a
2023 05 13 4:00 Wet 349.4 0.0 0.25 66.5 19.2 69.86 n/a
2023 05 13 5:00 263.7 0.0 0.00 64.2 17.9 79.84 n/a
2023 05 13 6:00 262.1 0.0 0.00 64.2 17.9 79.4 n/a
2023 05 13 7:00 260.5 0.0 0.00 66.1 18.9 73.55 n/a
2023 05 13 8:00 258.5 0.0 0.00 69.5 20.8 69.69 n/a
2023 05 13 9:00 257.7 0.0 0.00 71.7 22.1 66.39 n/a
2023 05 13 10:00 257.0 0.0 0.00 73.1 22.8 62.51 n/a
2023 05 13 11:00 256.8 0.0 0.00 73.9 23.3 60.34 n/a
2023 05 13 12:00 256.0 0.0 0.00 75.8 24.4 56.8 n/a
2023 05 13 13:00 256.0 0.0 0.00 77.8 25.4 54.47 n/a
2023 05 13 14:00 256.1 0.0 0.00 79.4 26.3 53.15 n/a
2023 05 13 15:00 257.0 0.0 0.00 80.2 26.8 53.39 n/a
2023 05 13 16:00 257.3 0.0 0.00 80.6 27.0 53.97 n/a
2023 05 13 17:00 257.3 0.0 0.00 80.5 27.0 54.84 n/a
2023 05 13 18:00 257.5 0.0 0.00 79.9 26.6 54.74 n/a
2023 05 13 19:00 258.0 0.0 0.00 78.8 26.0 57.77 n/a
2023 05 13 20:00 259.2 0.0 0.00 76.0 24.4 63.47 n/a
2023 05 13 21:00 260.2 0.0 0.00 73.3 23.0 69.58 n/a
2023 05 13 22:00 261.1 0.0 0.00 71.6 22.0 73.92 n/a
2023 05 13 23:00 262.9 0.0 0.00 70.1 21.2 76.83 n/a
2023 05 13 24:00 263.9 0.0 0.00 68.9 20.5 80.8 n/a
2023 05 14 1:00 265.6 0.0 0.00 68.4 20.2 82.4 n/a
2023 05 14 2:00 266.2 0.0 0.00 67.6 19.8 84.9 n/a
2023 05 14 3:00 268.2 0.0 0.00 67.0 19.5 87.3 n/a
2023 05 14 4:00 277.3 0.0 0.00 66.3 19.1 88.1 n/a
2023 05 14 5:00 Wet 307.0 0.0 0.00 65.4 18.6 88.7 n/a
2023 05 14 6:00 Wet 313.8 0.0 0.00 65.0 18.3 89.1 n/a
2023 05 14 7:00 262.8 0.0 0.00 66.7 19.3 86.3 n/a
2023 05 14 8:00 259.6 0.0 0.00 69.2 20.6 81.9 n/a
2023 05 14 9:00 257.8 0.0 0.00 72.7 22.6 77.23 n/a
2023 05 14 10:00 256.5 0.0 0.00 76.3 24.6 72.12 n/a
2023 05 14 11:00 256.3 0.0 0.00 78.3 25.7 66.45 n/a
2023 05 14 12:00 255.5 0.0 0.00 80.3 26.8 60.93 n/a
2023 05 14 13:00 255.8 0.0 0.00 81.4 27.5 58.98 n/a
2023 05 14 14:00 255.9 0.0 0.00 82.2 27.9 57.35 n/a
2023 05 14 15:00 256.4 0.0 0.00 82.6 28.1 55.3 n/a
2023 05 14 16:00 256.5 0.0 0.00 82.7 28.1 55.01 n/a
2023 05 14 17:00 256.5 0.0 0.00 83.4 28.6 54.12 n/a
2023 05 14 18:00 Wet 403.2 0.5 11.68 74.3 23.5 71.71 n/a
2023 05 14 19:00 Wet 479.6 0.1 2.03 67.6 19.8 94.2 n/a
2023 05 14 20:00 Wet 378.6 0.0 0.25 67.7 19.8 96.3 n/a
2023 05 14 21:00 Wet 304.7 0.0 0.00 68.0 20.0 94.5 n/a
2023 05 14 22:00 Wet 300.1 0.0 0.00 67.8 19.9 92.8 n/a
2023 05 14 23:00 Wet 294.5 0.0 0.00 67.0 19.4 95.2 n/a
2023 05 14 24:00 274.4 0.0 0.00 66.9 19.4 92.4 n/a
2023 05 15 1:00 266.4 0.0 0.00 67.1 19.5 90.4 n/a
2023 05 15 2:00 Wet 297.7 0.0 0.00 66.3 19.1 93.9 n/a
2023 05 15 3:00 Wet 332.9 0.0 0.00 65.9 18.9 96.9 n/a
2023 05 15 4:00 Wet 344.4 0.0 0.00 65.7 18.7 97.3 n/a
2023 05 15 5:00 Wet 365.9 0.0 0.00 65.2 18.5 97.9 n/a
2023 05 15 6:00 Wet 375.1 0.0 0.00 65.2 18.4 98.3 n/a
2023 05 15 7:00 Wet 393.5 0.0 0.25 65.5 18.6 98.5 n/a
2023 05 15 8:00 Wet 289.3 0.0 0.00 66.4 19.1 97.8 n/a
2023 05 15 9:00 274.3 0.0 0.00 65.8 18.8 96.6 n/a
2023 05 15 10:00 Wet 386.0 0.0 0.00 63.4 17.4 98.7 n/a
2023 05 15 11:00 Wet 402.2 0.0 0.00 63.2 17.3 99.4 n/a
2023 05 15 12:00 Wet 291.7 0.0 0.00 63.3 17.4 99.2 n/a
2023 05 15 13:00 263.6 0.0 0.00 63.5 17.5 98.1 n/a
2023 05 15 14:00 262.4 0.0 0.00 63.3 17.4 94.6 n/a
2023 05 15 15:00 261.7 0.0 0.00 63.7 17.6 87.9 n/a
2023 05 15 16:00 261.5 0.0 0.00 63.8 17.6 85.9 n/a
2023 05 15 17:00 262.0 0.0 0.00 63.0 17.2 86.4 n/a
2023 05 15 18:00 262.3 0.0 0.00 62.3 16.9 87 n/a
2023 05 15 19:00 263.1 0.0 0.00 61.6 16.5 88 n/a
2023 05 15 20:00 Wet 303.4 0.0 0.00 61.0 16.1 90.8 n/a
2023 05 15 21:00 Wet 420.1 0.0 0.00 59.9 15.5 96.8 n/a
2023 05 15 22:00 Wet 435.2 0.0 0.00 59.6 15.3 97.7 n/a
2023 05 15 23:00 Wet 468.2 0.0 0.00 59.3 15.2 98.2 n/a
2023 05 15 24:00 Wet 403.7 0.0 0.00 58.9 15.0 98.7 n/a
2023 05 16 1:00 Wet 373.9 0.0 0.00 58.4 14.7 99 n/a
2023 05 16 2:00 Wet 341.6 0.0 0.00 58.3 14.6 99 n/a
2023 05 16 3:00 Wet 372.3 0.0 0.00 58.2 14.6 98.8 n/a
2023 05 16 4:00 Wet 323.9 0.0 0.00 58.1 14.5 98.6 n/a
2023 05 16 5:00 Wet 297.4 0.0 0.00 58.2 14.5 98.1 n/a
2023 05 16 6:00 Wet 286.3 0.0 0.00 58.3 14.6 97.6 n/a
2023 05 16 7:00 268.0 0.0 0.00 58.4 14.7 97.3 n/a
2023 05 16 8:00 264.6 0.0 0.00 58.5 14.7 94.8 n/a
2023 05 16 9:00 268.0 0.0 0.00 58.7 14.9 91.2 n/a
2023 05 16 10:00 268.7 0.0 0.00 59.2 15.1 93 n/a
2023 05 16 11:00 261.7 0.0 0.00 60.3 15.7 85.6 n/a
2023 05 16 12:00 260.1 0.0 0.00 62.3 16.8 80.4 n/a
2023 05 16 13:00 260.9 0.0 0.00 62.2 16.8 79.48 n/a
2023 05 16 14:00 261.3 0.0 0.00 62.0 16.7 79.42 n/a
2023 05 16 15:00 260.7 0.0 0.00 62.3 16.8 78.13 n/a
2023 05 16 16:00 260.7 0.0 0.00 62.5 16.9 78.47 n/a
2023 05 16 17:00 Wet 285.7 0.0 0.00 62.1 16.7 82.7 n/a
2023 05 16 18:00 262.4 0.0 0.00 61.6 16.5 84.3 n/a
2023 05 16 19:00 262.8 0.0 0.00 61.4 16.3 85.1 n/a
2023 05 16 20:00 263.4 0.0 0.00 61.3 16.3 85.9 n/a
2023 05 16 21:00 276.2 0.0 0.00 60.9 16.0 86.8 n/a
2023 05 16 22:00 Wet 370.5 0.0 0.00 59.2 15.1 90.6 n/a
2023 05 16 23:00 Wet 484.1 0.0 0.00 58.1 14.5 96.3 n/a
2023 05 16 24:00 Wet 523.2 0.0 0.00 57.8 14.3 97 n/a
2023 05 17 1:00 Wet 571.7 0.0 0.00 57.1 13.9 97.4 n/a
2023 05 17 2:00 Wet 589.0 0.0 0.00 56.2 13.4 97.8 n/a
2023 05 17 3:00 Wet 581.7 0.0 0.00 55.2 12.9 98 n/a
2023 05 17 4:00 Wet 505.3 0.0 0.00 54.3 12.4 98.2 n/a
2023 05 17 5:00 Wet 460.0 0.0 0.00 54.0 12.2 98.4 n/a
2023 05 17 6:00 Wet 431.8 0.0 0.00 53.7 12.1 98.8 n/a
2023 05 17 7:00 Wet 363.7 0.0 0.00 55.7 13.2 99.1 n/a
2023 05 17 8:00 263.7 0.0 0.00 59.5 15.3 95.7 n/a
2023 05 17 9:00 257.3 0.0 0.00 64.9 18.3 76.74 n/a
2023 05 17 10:00 256.0 0.0 0.00 69.4 20.8 61.54 n/a
2023 05 17 11:00 255.1 0.0 0.00 71.9 22.2 46.68 n/a
2023 05 17 12:00 254.6 0.0 0.00 73.3 22.9 43.93 n/a
2023 05 17 13:00 254.7 0.0 0.00 74.5 23.6 42.41 n/a
2023 05 17 14:00 255.0 0.0 0.00 75.5 24.2 40.97 n/a
2023 05 17 15:00 255.8 0.0 0.00 76.0 24.5 39.63 n/a
2023 05 17 16:00 256.1 0.0 0.00 76.4 24.7 38.29 n/a
2023 05 17 17:00 255.6 0.0 0.00 76.5 24.7 35.78 n/a
2023 05 17 18:00 255.7 0.0 0.00 76.0 24.5 36.85 n/a
2023 05 17 19:00 256.0 0.0 0.00 75.1 24.0 40.35 n/a
2023 05 17 20:00 257.9 0.0 0.00 70.9 21.6 50.39 n/a
2023 05 17 21:00 259.1 0.0 0.00 67.2 19.5 60.27 n/a
2023 05 17 22:00 260.1 0.0 0.00 64.9 18.3 66.68 n/a
2023 05 17 23:00 261.7 0.0 0.00 62.7 17.1 73.8 n/a
2023 05 17 24:00 265.9 0.0 0.00 60.9 16.1 81.3 n/a
2023 05 18 1:00 279.6 0.0 0.00 59.7 15.4 84.9 n/a
2023 05 18 2:00 Wet 314.7 0.0 0.00 58.6 14.8 86.5 n/a
2023 05 18 3:00 Wet 350.1 0.0 0.00 57.8 14.4 87.6 n/a
2023 05 18 4:00 Wet 390.7 0.0 0.00 56.9 13.8 89.4 n/a
2023 05 18 5:00 Wet 440.1 0.0 0.00 56.4 13.5 89 n/a
2023 05 18 6:00 Wet 493.8 0.0 0.00 55.7 13.1 93.4 n/a
2023 05 18 7:00 Wet 394.1 0.0 0.00 59.0 15.0 93 n/a
2023 05 18 8:00 259.0 0.0 0.00 64.0 17.8 81.8 n/a
2023 05 18 9:00 256.3 0.0 0.00 69.9 21.0 67.55 n/a
2023 05 18 10:00 255.1 0.0 0.00 72.7 22.6 56.58 n/a
2023 05 18 11:00 254.5 0.0 0.00 74.7 23.7 52.47 n/a
2023 05 18 12:00 254.5 0.0 0.00 76.5 24.7 48.51 n/a
2023 05 18 13:00 255.0 0.0 0.00 77.1 25.1 47.41 n/a
2023 05 18 14:00 255.2 0.0 0.00 77.6 25.4 44.85 n/a
2023 05 18 15:00 255.7 0.0 0.00 78.6 25.9 43.13 n/a
2023 05 18 16:00 256.3 0.0 0.00 78.7 26.0 43.52 n/a
2023 05 18 17:00 255.9 0.0 0.00 79.0 26.1 42.4 n/a
2023 05 18 18:00 256.0 0.0 0.00 78.2 25.6 44.22 n/a
2023 05 18 19:00 256.7 0.0 0.00 76.3 24.6 48.97 n/a
2023 05 18 20:00 258.4 0.0 0.00 72.7 22.6 56.39 n/a
2023 05 18 21:00 259.5 0.0 0.00 69.7 21.0 62.83 n/a
2023 05 18 22:00 260.2 0.0 0.00 67.9 20.0 68.31 n/a
2023 05 18 23:00 261.7 0.0 0.00 66.6 19.2 73.23 n/a
2023 05 18 24:00 262.2 0.0 0.00 65.4 18.6 76.15 n/a
2023 05 19 1:00 264.1 0.0 0.00 64.5 18.1 78.59 n/a
2023 05 19 2:00 263.7 0.0 0.00 64.1 17.8 80.5 n/a
2023 05 19 3:00 266.5 0.0 0.00 63.3 17.4 81.8 n/a
2023 05 19 4:00 266.1 0.0 0.00 63.1 17.3 81.4 n/a
2023 05 19 5:00 266.5 0.0 0.00 62.9 17.1 81.2 n/a
2023 05 19 6:00 263.7 0.0 0.00 62.7 17.0 82 n/a
2023 05 19 7:00 262.1 0.0 0.00 63.8 17.7 81.5 n/a
2023 05 19 8:00 261.4 0.0 0.00 64.7 18.2 80.4 n/a
2023 05 19 9:00 264.2 0.0 0.00 65.6 18.6 80.6 n/a
2023 05 19 10:00 Wet 437.0 0.1 3.05 66.1 19.0 81.9 n/a
2023 05 19 11:00 Wet 505.2 0.1 1.27 63.7 17.6 87.1 n/a
2023 05 19 12:00 Wet 516.8 0.0 1.02 60.4 15.8 87.8 n/a
2023 05 19 13:00 Wet 498.0 0.1 1.27 58.7 14.9 89.5 n/a
2023 05 19 14:00 Wet 536.2 0.0 1.02 56.5 13.6 89.7 n/a
2023 05 19 15:00 Wet 475.8 0.0 0.25 55.2 12.9 88.8 n/a
2023 05 19 16:00 Wet 498.4 0.0 0.25 54.3 12.4 87.1 n/a
2023 05 19 17:00 Wet 513.6 0.0 0.25 54.3 12.4 86.3 n/a
2023 05 19 18:00 Wet 443.4 0.0 0.00 55.1 12.8 87.5 n/a
2023 05 19 19:00 Wet 303.1 0.0 0.00 55.6 13.1 86.3 n/a
2023 05 19 20:00 274.1 0.0 0.00 55.4 13.0 86.7 n/a
2023 05 19 21:00 Wet 327.1 0.0 0.00 54.0 12.2 87.3 n/a
2023 05 19 22:00 Wet 432.8 0.0 0.00 52.9 11.6 89 n/a
2023 05 19 23:00 Wet 528.1 0.0 0.00 52.1 11.2 94.2 n/a
2023 05 19 24:00 Wet 568.4 0.0 0.00 50.9 10.5 96.4 n/a
2023 05 20 1:00 Wet 607.3 0.0 0.00 49.7 9.8 96.9 n/a
2023 05 20 2:00 Wet 630.3 0.0 0.00 48.7 9.3 96.8 n/a
2023 05 20 3:00 Wet 607.3 0.0 0.00 48.3 9.1 87.5 n/a
2023 05 20 4:00 Wet 569.6 0.0 0.00 47.6 8.7 85.1 n/a
2023 05 20 5:00 Wet 504.4 0.0 0.00 47.0 8.4 83.6 n/a
2023 05 20 6:00 Wet 379.2 0.0 0.00 46.9 8.3 81.7 n/a
2023 05 20 7:00 261.0 0.0 0.00 49.1 9.5 77.58 n/a
2023 05 20 8:00 259.0 0.0 0.00 52.4 11.3 69.79 n/a
2023 05 20 9:00 257.8 0.0 0.00 55.1 12.8 66.24 n/a
2023 05 20 10:00 257.3 0.0 0.00 57.5 14.2 57.81 n/a
2023 05 20 11:00 256.8 0.0 0.00 59.8 15.4 53.87 n/a
2023 05 20 12:00 256.3 0.0 0.00 61.8 16.6 52.05 n/a
2023 05 20 13:00 256.4 0.0 0.00 63.0 17.3 50.74 n/a
2023 05 20 14:00 256.4 0.0 0.00 64.6 18.1 49.9 n/a
2023 05 20 15:00 257.2 0.0 0.00 65.7 18.7 48.72 n/a
2023 05 20 16:00 257.4 0.0 0.00 66.5 19.2 47.59 n/a
2023 05 20 17:00 257.2 0.0 0.00 66.9 19.4 45.69 n/a
2023 05 20 18:00 256.9 0.0 0.00 67.0 19.4 43.42 n/a
2023 05 20 19:00 257.4 0.0 0.00 65.7 18.7 46.41 n/a
2023 05 20 20:00 259.0 0.0 0.00 62.4 16.9 52.36 n/a
2023 05 20 21:00 260.3 0.0 0.00 59.3 15.2 60.6 n/a
2023 05 20 22:00 262.4 0.0 0.00 56.0 13.4 69.49 n/a
2023 05 20 23:00 266.0 0.0 0.00 54.1 12.3 74.58 n/a
2023 05 20 24:00 275.2 0.0 0.00 52.5 11.4 79.12 n/a
2023 05 21 1:00 Wet 302.3 0.0 0.00 51.1 10.6 83.4 n/a
2023 05 21 2:00 Wet 354.3 0.0 0.00 50.0 10.0 86.1 n/a
2023 05 21 3:00 Wet 427.1 0.0 0.00 48.8 9.4 88.3 n/a
2023 05 21 4:00 Wet 510.3 0.0 0.00 48.3 9.1 91 n/a
2023 05 21 5:00 Wet 559.9 0.0 0.00 47.7 8.7 93.7 n/a
2023 05 21 6:00 Wet 597.9 0.0 0.00 47.4 8.5 95.4 n/a
2023 05 21 7:00 Wet 482.2 0.0 0.00 52.1 11.1 91.7 n/a
2023 05 21 8:00 264.3 0.0 0.00 58.2 14.5 74.91 n/a
2023 05 21 9:00 257.1 0.0 0.00 62.9 17.1 63.9 n/a
2023 05 21 10:00 255.9 0.0 0.00 65.6 18.7 52.09 n/a
2023 05 21 11:00 255.4 0.0 0.00 66.9 19.4 48.7 n/a
2023 05 21 12:00 255.2 0.0 0.00 68.3 20.2 48 n/a
2023 05 21 13:00 255.2 0.0 0.00 69.6 20.9 46.7 n/a
2023 05 21 14:00 255.5 0.0 0.00 70.5 21.4 44.86 n/a
2023 05 21 15:00 256.3 0.0 0.00 71.3 21.8 44.97 n/a
2023 05 21 16:00 256.3 0.0 0.00 71.5 22.0 42.8 n/a
2023 05 21 17:00 256.1 0.0 0.00 71.1 21.7 40.04 n/a
2023 05 21 18:00 256.2 0.0 0.00 70.9 21.6 42.04 n/a
2023 05 21 19:00 257.1 0.0 0.00 69.7 20.9 48.37 n/a
2023 05 21 20:00 258.7 0.0 0.00 66.8 19.4 56.9 n/a
2023 05 21 21:00 260.9 0.0 0.00 63.1 17.3 66.98 n/a
2023 05 21 22:00 262.2 0.0 0.00 60.8 16.0 72.31 n/a
2023 05 21 23:00 268.7 0.0 0.00 58.3 14.6 78.74 n/a
2023 05 21 24:00 Wet 292.7 0.0 0.00 56.8 13.8 82.7 n/a
2023 05 22 1:00 Wet 328.5 0.0 0.00 54.9 12.7 85.1 n/a
2023 05 22 2:00 Wet 370.3 0.0 0.00 54.2 12.3 87.6 n/a
2023 05 22 3:00 Wet 429.3 0.0 0.00 53.7 12.1 88.7 n/a
2023 05 22 4:00 Wet 495.1 0.0 0.00 53.7 12.0 88.4 n/a
2023 05 22 5:00 Wet 536.0 0.0 0.00 52.6 11.5 89.3 n/a
2023 05 22 6:00 Wet 552.1 0.0 0.00 52.5 11.4 92.5 n/a
2023 05 22 7:00 Wet 368.2 0.0 0.00 57.3 14.0 84 n/a
2023 05 22 8:00 258.1 0.0 0.00 61.3 16.3 73.42 n/a
2023 05 22 9:00 256.7 0.0 0.00 65.2 18.4 65.8 n/a
2023 05 22 10:00 256.0 0.0 0.00 68.7 20.4 56.5 n/a
2023 05 22 11:00 255.1 0.0 0.00 70.8 21.5 45.3 n/a
2023 05 22 12:00 255.0 0.0 0.00 71.6 22.0 43.24 n/a
2023 05 22 13:00 254.8 0.0 0.00 72.8 22.6 41.31 n/a
2023 05 22 14:00 255.0 0.0 0.00 73.6 23.1 41.77 n/a
2023 05 22 15:00 255.7 0.0 0.00 73.9 23.3 40.67 n/a
2023 05 22 16:00 255.8 0.0 0.00 74.6 23.7 38.96 n/a
2023 05 22 17:00 255.6 0.0 0.00 74.9 23.9 38.56 n/a
2023 05 22 18:00 255.8 0.0 0.00 74.2 23.5 37.45 n/a
2023 05 22 19:00 256.3 0.0 0.00 73.2 22.9 39.33 n/a
2023 05 22 20:00 257.7 0.0 0.00 69.5 20.8 48.39 n/a
2023 05 22 21:00 258.6 0.0 0.00 65.9 18.8 56.79 n/a
2023 05 22 22:00 259.9 0.0 0.00 63.3 17.4 64.01 n/a
2023 05 22 23:00 261.2 0.0 0.00 61.5 16.4 68.69 n/a
2023 05 22 24:00 261.2 0.0 0.00 60.9 16.1 68.93 n/a
2023 05 23 1:00 267.4 0.0 0.00 58.7 14.8 75.85 n/a
2023 05 23 2:00 278.0 0.0 0.00 56.6 13.7 83.1 n/a
2023 05 23 3:00 280.6 0.0 0.00 55.9 13.3 82.7 n/a
2023 05 23 4:00 Wet 330.3 0.0 0.00 54.2 12.4 86.8 n/a
2023 05 23 5:00 Wet 388.1 0.0 0.00 53.4 11.9 88.7 n/a
2023 05 23 6:00 Wet 425.8 0.0 0.00 53.5 11.9 89 n/a
2023 05 23 7:00 Wet 294.6 0.0 0.00 58.4 14.7 78.32 n/a
2023 05 23 8:00 257.6 0.0 0.00 63.7 17.6 68.77 n/a
2023 05 23 9:00 255.9 0.0 0.00 69.6 20.9 55.95 n/a
2023 05 23 10:00 255.0 0.0 0.00 72.9 22.7 43.83 n/a
2023 05 23 11:00 254.2 0.0 0.00 74.6 23.7 35.98 n/a
2023 05 23 12:00 254.2 0.0 0.00 75.5 24.1 34.7 n/a
2023 05 23 13:00 254.3 0.0 0.00 76.4 24.7 36.32 n/a
2023 05 23 14:00 254.5 0.0 0.00 77.0 25.0 34.91 n/a
2023 05 23 15:00 255.1 0.0 0.00 77.6 25.4 33.85 n/a
2023 05 23 16:00 255.3 0.0 0.00 78.0 25.6 35.3 n/a
2023 05 23 17:00 255.2 0.0 0.00 77.9 25.5 35.41 n/a
2023 05 23 18:00 255.2 0.0 0.00 77.7 25.4 35.52 n/a
2023 05 23 19:00 255.4 0.0 0.00 76.7 24.8 37.51 n/a
2023 05 23 20:00 257.0 0.0 0.00 73.1 22.9 44.46 n/a
2023 05 23 21:00 258.4 0.0 0.00 68.9 20.5 53.79 n/a
2023 05 23 22:00 259.6 0.0 0.00 65.8 18.8 59.29 n/a
2023 05 23 23:00 260.1 0.0 0.00 63.4 17.4 64.42 n/a
2023 05 23 24:00 260.8 0.0 0.00 61.6 16.5 67.95 n/a
2023 05 24 1:00 260.4 0.0 0.00 61.2 16.2 65.46 n/a
2023 05 24 2:00 261.2 0.0 0.00 59.8 15.5 68.51 n/a
2023 05 24 3:00 263.7 0.0 0.00 58.6 14.8 75.37 n/a
2023 05 24 4:00 263.3 0.0 0.00 57.9 14.4 76.26 n/a
2023 05 24 5:00 261.9 0.0 0.00 58.2 14.6 73.79 n/a
2023 05 24 6:00 261.8 0.0 0.00 58.1 14.5 78.45 n/a
2023 05 24 7:00 259.1 0.0 0.00 63.0 17.2 70.59 n/a
2023 05 24 8:00 256.8 0.0 0.00 68.0 20.0 68.13 n/a
2023 05 24 9:00 256.4 0.0 0.00 71.3 21.8 62.83 n/a
2023 05 24 10:00 255.7 0.0 0.00 74.8 23.8 59.04 n/a
2023 05 24 11:00 255.6 0.0 0.00 76.6 24.8 59.44 n/a
2023 05 24 12:00 255.7 0.0 0.00 77.9 25.5 55.11 n/a
2023 05 24 13:00 255.3 0.0 0.00 79.4 26.3 49.02 n/a
2023 05 24 14:00 255.5 0.0 0.00 80.0 26.7 45.31 n/a
2023 05 24 15:00 255.9 0.0 0.00 80.5 27.0 43.7 n/a
2023 05 24 16:00 255.9 0.0 0.00 80.1 26.7 45.23 n/a
2023 05 24 17:00 256.4 0.0 0.00 78.8 26.0 43.29 n/a
2023 05 24 18:00 256.7 0.0 0.00 77.8 25.5 46.53 n/a
2023 05 24 19:00 257.9 0.0 0.00 74.9 23.8 57.44 n/a
2023 05 24 20:00 259.7 0.0 0.00 71.5 21.9 70.69 n/a
2023 05 24 21:00 261.7 0.0 0.00 69.1 20.6 76.33 n/a
2023 05 24 22:00 262.9 0.0 0.00 67.4 19.7 78.04 n/a
2023 05 24 23:00 262.0 0.0 0.00 66.6 19.2 76.62 n/a
2023 05 24 24:00 263.1 0.0 0.00 65.0 18.3 78.79 n/a
2023 05 25 1:00 276.6 0.0 0.00 63.0 17.3 82.7 n/a
2023 05 25 2:00 Wet 312.4 0.0 0.00 61.4 16.3 86.8 n/a
2023 05 25 3:00 Wet 354.5 0.0 0.00 60.8 16.0 88.7 n/a
2023 05 25 4:00 Wet 387.4 0.0 0.00 60.4 15.8 89 n/a
2023 05 25 5:00 Wet 412.2 0.0 0.00 60.2 15.7 89.4 n/a
2023 05 25 6:00 Wet 438.6 0.0 0.00 59.8 15.4 89.3 n/a
2023 05 25 7:00 Wet 390.8 0.0 0.00 61.0 16.1 89.5 n/a
2023 05 25 8:00 259.5 0.0 0.00 66.6 19.2 78.51 n/a
2023 05 25 9:00 257.2 0.0 0.00 71.2 21.8 65.73 n/a
2023 05 25 10:00 256.0 0.0 0.00 74.6 23.7 57.97 n/a
2023 05 25 11:00 255.3 0.0 0.00 78.0 25.6 48.15 n/a
2023 05 25 12:00 254.7 0.0 0.00 79.5 26.4 37.84 n/a
2023 05 25 13:00 254.5 0.0 0.00 80.5 26.9 35.31 n/a
2023 05 25 14:00 254.5 0.0 0.00 81.3 27.4 33.46 n/a
2023 05 25 15:00 255.0 0.0 0.00 81.2 27.4 33.51 n/a
2023 05 25 16:00 255.0 0.0 0.00 81.6 27.5 33.29 n/a
2023 05 25 17:00 255.1 0.0 0.00 80.8 27.1 34.42 n/a
2023 05 25 18:00 255.6 0.0 0.00 79.6 26.5 37.61 n/a
2023 05 25 19:00 256.7 0.0 0.00 77.6 25.3 44.84 n/a
2023 05 25 20:00 257.3 0.0 0.00 75.3 24.1 47.12 n/a
2023 05 25 21:00 257.3 0.0 0.00 72.5 22.5 50.33 n/a
2023 05 25 22:00 257.4 0.0 0.00 72.4 22.5 52.95 n/a
2023 05 25 23:00 257.9 0.0 0.00 71.4 21.9 54.58 n/a
2023 05 25 24:00 258.0 0.0 0.00 70.0 21.1 55.22 n/a
2023 05 26 1:00 258.0 0.0 0.00 67.9 19.9 56.4 n/a
2023 05 26 2:00 258.6 0.0 0.00 65.4 18.5 58.86 n/a
2023 05 26 3:00 259.2 0.0 0.00 62.6 17.0 62.27 n/a
2023 05 26 4:00 259.5 0.0 0.00 59.9 15.5 65.98 n/a
2023 05 26 5:00 260.8 0.0 0.00 57.4 14.1 69.08 n/a
2023 05 26 6:00 260.3 0.0 0.00 56.5 13.6 69.03 n/a
2023 05 26 7:00 257.5 0.0 0.00 59.4 15.2 59.23 n/a
2023 05 26 8:00 277.3 0.0 0.00 62.7 17.1 52.17 n/a
2023 05 26 9:00 257.6 0.0 0.00 65.9 18.9 46.03 n/a
2023 05 26 10:00 255.4 0.0 0.00 69.2 20.7 39.01 n/a
2023 05 26 11:00 255.3 0.0 0.00 71.4 21.9 33.93 n/a
2023 05 26 12:00 254.8 0.0 0.00 72.8 22.6 28.61 n/a
2023 05 26 13:00 254.9 0.0 0.00 73.9 23.3 28 n/a
2023 05 26 14:00 254.9 0.0 0.00 75.1 23.9 26.56 n/a
2023 05 26 15:00 255.3 0.0 0.00 76.2 24.6 24.9 n/a
2023 05 26 16:00 255.5 0.0 0.00 76.3 24.6 25.65 n/a
2023 05 26 17:00 255.2 0.0 0.00 76.1 24.5 25.49 n/a
2023 05 26 18:00 255.2 0.0 0.00 75.3 24.1 23.77 n/a
2023 05 26 19:00 255.4 0.0 0.00 73.4 23.0 26.51 n/a
2023 05 26 20:00 257.0 0.0 0.00 69.0 20.6 34.72 n/a
2023 05 26 21:00 258.8 0.0 0.00 63.9 17.7 41.15 n/a
2023 05 26 22:00 258.9 0.0 0.00 61.7 16.5 43.25 n/a
2023 05 26 23:00 259.0 0.0 0.00 60.4 15.8 44.89 n/a
2023 05 26 24:00 259.4 0.0 0.00 59.0 15.0 47 n/a
2023 05 27 1:00 260.6 0.0 0.00 56.7 13.7 51.73 n/a
2023 05 27 2:00 261.5 0.0 0.00 54.5 12.5 56.71 n/a
2023 05 27 3:00 262.1 0.0 0.00 53.1 11.7 60.35 n/a
2023 05 27 4:00 262.4 0.0 0.00 52.7 11.5 61.43 n/a
2023 05 27 5:00 262.8 0.0 0.00 52.4 11.4 62.58 n/a
2023 05 27 6:00 262.1 0.0 0.00 52.0 11.1 65.5 n/a
2023 05 27 7:00 258.8 0.0 0.00 56.0 13.4 60.24 n/a
2023 05 27 8:00 256.9 0.0 0.00 62.1 16.7 53.26 n/a
2023 05 27 9:00 255.9 0.0 0.00 67.0 19.4 43.31 n/a
2023 05 27 10:00 255.1 0.0 0.00 69.8 21.0 37.4 n/a
2023 05 27 11:00 254.4 0.0 0.00 71.3 21.9 34.7 n/a
2023 05 27 12:00 254.3 0.0 0.00 72.6 22.6 34.36 n/a
2023 05 27 13:00 254.3 0.0 0.00 73.7 23.2 31.87 n/a
2023 05 27 14:00 254.5 0.0 0.00 74.6 23.6 28.98 n/a
2023 05 27 15:00 255.4 0.0 0.00 75.5 24.2 30.13 n/a
2023 05 27 16:00 255.2 0.0 0.00 75.6 24.2 24.4 n/a
2023 05 27 17:00 255.2 0.0 0.00 75.7 24.3 27.37 n/a
2023 05 27 18:00 255.2 0.0 0.00 75.0 23.9 29.45 n/a
2023 05 27 19:00 255.9 0.0 0.00 73.4 23.0 33.84 n/a
2023 05 27 20:00 257.9 0.0 0.00 68.8 20.4 40.8 n/a
2023 05 27 21:00 259.4 0.0 0.00 64.2 17.9 49.12 n/a
2023 05 27 22:00 260.0 0.0 0.00 62.3 16.9 52 n/a
2023 05 27 23:00 260.1 0.0 0.00 62.0 16.7 50.89 n/a
2023 05 27 24:00 261.6 0.0 0.00 59.2 15.1 59.74 n/a
2023 05 28 1:00 260.9 0.0 0.00 57.2 14.0 66.45 n/a
2023 05 28 2:00 261.0 0.0 0.00 56.9 13.9 66.88 n/a
2023 05 28 3:00 257.9 0.0 0.00 56.2 13.5 68.94 n/a
2023 05 28 4:00 211.4 0.0 0.00 52.8 11.5 78.12 n/a
2023 05 28 5:00 205.7 0.0 0.00 51.7 11.0 83.6 n/a
2023 05 28 6:00 224.9 0.0 0.00 51.7 11.0 84.4 n/a
2023 05 28 7:00 258.2 0.0 0.00 57.2 14.0 78.42 n/a
2023 05 28 8:00 257.9 0.0 0.00 63.4 17.5 65.4 n/a
2023 05 28 9:00 256.0 0.0 0.00 68.7 20.4 54.59 n/a
2023 05 28 10:00 254.9 0.0 0.00 73.1 22.8 42.16 n/a
2023 05 28 11:00 254.3 0.0 0.00 74.9 23.8 33.72 n/a
2023 05 28 12:00 253.8 0.0 0.00 76.4 24.7 31.33 n/a
2023 05 28 13:00 254.0 0.0 0.00 77.1 25.0 31.93 n/a
2023 05 28 14:00 254.4 0.0 0.00 77.9 25.5 30.8 n/a
2023 05 28 15:00 255.2 0.0 0.00 78.5 25.8 30.63 n/a
2023 05 28 16:00 255.4 0.0 0.00 79.0 26.1 29.41 n/a
2023 05 28 17:00 255.0 0.0 0.00 78.9 26.0 27.68 n/a
2023 05 28 18:00 255.1 0.0 0.00 78.3 25.7 28.5 n/a
2023 05 28 19:00 255.3 0.0 0.00 77.1 25.1 29.4 n/a
2023 05 28 20:00 257.3 0.0 0.00 72.8 22.7 40.19 n/a
2023 05 28 21:00 259.0 0.0 0.00 69.1 20.6 47.59 n/a
2023 05 28 22:00 259.3 0.0 0.00 67.1 19.5 49.76 n/a
2023 05 28 23:00 259.5 0.0 0.00 66.4 19.1 49.94 n/a
2023 05 28 24:00 259.6 0.0 0.00 66.0 18.9 51.24 n/a
2023 05 29 1:00 261.1 0.0 0.00 62.6 17.0 61.33 n/a
2023 05 29 2:00 261.4 0.0 0.00 61.7 16.5 64.6 n/a
2023 05 29 3:00 261.0 0.0 0.00 60.6 15.9 68.65 n/a
2023 05 29 4:00 260.7 0.0 0.00 61.0 16.1 70.03 n/a
2023 05 29 5:00 261.0 0.0 0.00 61.0 16.1 69.79 n/a
2023 05 29 6:00 260.8 0.0 0.00 61.0 16.1 71.75 n/a
2023 05 29 7:00 260.3 0.0 0.00 63.8 17.7 66.59 n/a
2023 05 29 8:00 259.5 0.0 0.00 66.3 19.1 64.53 n/a
2023 05 29 9:00 256.8 0.0 0.00 70.0 21.1 58.62 n/a
2023 05 29 10:00 255.8 0.0 0.00 74.4 23.6 52.57 n/a
2023 05 29 11:00 255.3 0.0 0.00 77.4 25.2 47.23 n/a
2023 05 29 12:00 255.2 0.0 0.00 78.9 26.1 41.39 n/a
2023 05 29 13:00 254.8 0.0 0.00 80.3 26.9 37.46 n/a
2023 05 29 14:00 255.0 0.0 0.00 81.1 27.3 36.27 n/a
2023 05 29 15:00 255.5 0.0 0.00 81.0 27.2 36.29 n/a
2023 05 29 16:00 255.7 0.0 0.00 80.3 26.9 37.57 n/a
2023 05 29 17:00 256.1 0.0 0.00 79.8 26.5 40.51 n/a
2023 05 29 18:00 256.7 0.0 0.00 79.3 26.3 42.5 n/a
2023 05 29 19:00 257.4 0.0 0.00 78.2 25.7 46.85 n/a
2023 05 29 20:00 259.3 0.0 0.00 75.9 24.4 56.07 n/a
2023 05 29 21:00 261.0 0.0 0.00 72.5 22.5 65.27 n/a
2023 05 29 22:00 259.6 0.0 0.00 70.5 21.4 70.73 n/a
2023 05 29 23:00 256.5 0.0 0.00 68.6 20.3 75.68 n/a
2023 05 29 24:00 258.5 0.0 0.00 68.5 20.3 77.02 n/a
2023 05 30 1:00 260.5 0.0 0.00 68.3 20.1 73.76 n/a
2023 05 30 2:00 261.7 0.0 0.00 68.6 20.3 70.14 n/a
2023 05 30 3:00 243.4 0.0 0.00 67.9 19.9 71.54 n/a
2023 05 30 4:00 262.8 0.0 0.00 67.8 19.9 68.97 n/a
2023 05 30 5:00 Wet 293.2 0.0 0.00 67.0 19.5 73.21 n/a
2023 05 30 6:00 Wet 353.0 0.2 3.81 66.2 19.0 82.5 n/a
2023 05 30 7:00 Wet 357.1 0.0 0.51 65.3 18.5 90 n/a
2023 05 30 8:00 279.2 0.0 0.00 66.4 19.1 91.2 n/a
2023 05 30 9:00 Wet 284.6 0.0 0.00 68.8 20.5 80.7 n/a
2023 05 30 10:00 264.5 0.0 0.00 71.1 21.7 76.45 n/a
2023 05 30 11:00 257.7 0.0 0.00 74.5 23.6 67.5 n/a
2023 05 30 12:00 256.8 0.0 0.00 77.8 25.4 60.29 n/a
2023 05 30 13:00 256.2 0.0 0.00 80.1 26.7 54.72 n/a
2023 05 30 14:00 256.3 0.0 0.00 81.1 27.3 52.26 n/a
2023 05 30 15:00 257.0 0.0 0.00 81.6 27.5 52.09 n/a
2023 05 30 16:00 257.1 0.0 0.00 81.5 27.5 52.88 n/a
2023 05 30 17:00 257.1 0.0 0.00 81.5 27.5 52.84 n/a
2023 05 30 18:00 257.8 0.0 0.00 79.2 26.2 56.38 n/a
2023 05 30 19:00 Wet 287.3 0.0 0.00 72.5 22.5 65.61 n/a
2023 05 30 20:00 283.5 0.0 0.25 69.1 20.6 67.44 n/a
2023 05 30 21:00 Wet 429.9 0.1 1.78 64.2 17.9 85.3 n/a
2023 05 30 22:00 Wet 325.4 0.0 0.00 63.2 17.4 91.2 n/a
2023 05 30 23:00 Wet 302.8 0.0 0.00 62.7 17.1 90.5 n/a
2023 05 30 24:00 Wet 332.1 0.0 0.00 62.0 16.7 92.5 n/a
2023 05 31 1:00 Wet 339.7 0.0 0.00 62.0 16.6 92.1 n/a
2023 05 31 2:00 Wet 332.3 0.0 0.00 62.2 16.8 89.6 n/a
2023 05 31 3:00 Wet 293.3 0.0 0.00 63.4 17.5 86.2 n/a
2023 05 31 4:00 269.5 0.0 0.00 64.1 17.9 84.6 n/a
2023 05 31 5:00 264.3 0.0 0.00 64.2 17.9 85 n/a
2023 05 31 6:00 263.7 0.0 0.00 64.1 17.9 84.8 n/a
2023 05 31 7:00 263.1 0.0 0.00 64.5 18.1 84.4 n/a
2023 05 31 8:00 273.5 0.0 0.25 65.3 18.5 84.1 n/a
2023 05 31 9:00 Wet 346.5 0.0 0.25 65.6 18.6 88.8 n/a
2023 05 31 10:00 Wet 311.6 0.0 0.00 66.5 19.1 89.2 n/a
2023 05 31 11:00 Wet 301.6 0.0 0.00 68.1 20.1 87.1 n/a
2023 05 31 12:00 259.8 0.0 0.00 72.9 22.7 75.03 n/a
2023 05 31 13:00 258.0 0.0 0.00 76.8 24.9 65.71 n/a
2023 05 31 14:00 258.1 0.0 0.00 78.2 25.6 62.95 n/a
2023 05 31 15:00 258.0 0.0 0.00 80.7 27.1 57.16 n/a
2023 05 31 16:00 257.9 0.0 0.00 81.1 27.3 54.91 n/a
2023 05 31 17:00 257.9 0.0 0.00 81.5 27.5 54.77 n/a
2023 05 31 18:00 257.9 0.0 0.00 80.2 26.8 56.83 n/a
2023 05 31 19:00 258.2 0.0 0.00 78.2 25.7 60.42 n/a
2023 05 31 20:00 259.3 0.0 0.00 76.2 24.5 64.23 n/a
2023 05 31 21:00 260.1 0.0 0.00 73.6 23.1 67.26 n/a
2023 05 31 22:00 260.7 0.0 0.00 71.7 22.1 74.69 n/a
2023 05 31 23:00 261.2 0.0 0.00 70.9 21.6 76.29 n/a
2023 05 31 24:00 261.3 0.0 0.00 70.5 21.4 76.31 n/a
2023 06 01 1:00 261.4 0.0 0.00 69.7 20.9 77.23 n/a
2023 06 01 2:00 261.8 0.0 0.00 68.7 20.4 78.19 n/a
2023 06 01 3:00 261.9 0.0 0.00 68.1 20.0 78.38 n/a
2023 06 01 4:00 262.8 0.0 0.00 67.1 19.5 80.2 n/a
2023 06 01 5:00 263.4 0.0 0.00 66.5 19.1 81.1 n/a
2023 06 01 6:00 262.5 0.0 0.00 66.2 19.0 81.5 n/a
2023 06 01 7:00 259.7 0.0 0.00 68.3 20.1 77.62 n/a
2023 06 01 8:00 258.7 0.0 0.00 71.4 21.9 71.68 n/a
2023 06 01 9:00 257.6 0.0 0.00 74.9 23.8 65.62 n/a
2023 06 01 10:00 256.5 0.0 0.00 78.3 25.7 57.49 n/a
2023 06 01 11:00 255.9 0.0 0.00 80.5 26.9 53.1 n/a
2023 06 01 12:00 255.9 0.0 0.00 81.5 27.5 49.6 n/a
2023 06 01 13:00 256.4 0.0 0.00 80.9 27.2 50.01 n/a
2023 06 01 14:00 255.9 0.0 0.00 82.3 27.9 48.7 n/a
2023 06 01 15:00 256.5 0.0 0.00 83.5 28.6 45.9 n/a
2023 06 01 16:00 256.4 0.0 0.00 84.5 29.2 43.42 n/a
2023 06 01 17:00 255.9 0.0 0.00 84.4 29.1 42.29 n/a
2023 06 01 18:00 256.1 0.0 0.00 83.8 28.8 42.91 n/a
2023 06 01 19:00 256.5 0.0 0.00 82.1 27.9 46.68 n/a
2023 06 01 20:00 257.5 0.0 0.00 79.6 26.4 50.52 n/a
2023 06 01 21:00 258.5 0.0 0.00 76.4 24.7 56.86 n/a
2023 06 01 22:00 258.7 0.0 0.00 74.9 23.9 57.51 n/a
2023 06 01 23:00 259.3 0.0 0.00 73.0 22.8 61.42 n/a
2023 06 01 24:00 259.8 0.0 0.00 71.3 21.8 65.76 n/a
2023 06 02 1:00 260.6 0.0 0.00 69.8 21.0 70.63 n/a
2023 06 02 2:00 262.4 0.0 0.00 68.4 20.2 75.39 n/a
2023 06 02 3:00 262.5 0.0 0.00 67.7 19.8 78.15 n/a
2023 06 02 4:00 263.7 0.0 0.00 67.6 19.8 77.5 n/a
2023 06 02 5:00 269.7 0.0 0.00 65.8 18.8 82.3 n/a
2023 06 02 6:00 270.0 0.0 0.00 65.1 18.4 85.7 n/a
2023 06 02 7:00 259.2 0.0 0.00 69.3 20.7 79.27 n/a
2023 06 02 8:00 257.7 0.0 0.00 72.6 22.6 72.79 n/a
2023 06 02 9:00 256.1 0.0 0.00 76.1 24.5 65.86 n/a
2023 06 02 10:00 255.4 0.0 0.00 79.2 26.2 60.31 n/a
2023 06 02 11:00 255.2 0.0 0.00 81.2 27.4 56.28 n/a
2023 06 02 12:00 255.2 0.0 0.00 82.5 28.1 51.96 n/a
2023 06 02 13:00 255.1 0.0 0.00 83.7 28.7 47.46 n/a
2023 06 02 14:00 255.2 0.0 0.00 84.5 29.2 44.83 n/a
2023 06 02 15:00 255.8 0.0 0.00 85.3 29.6 43.36 n/a
2023 06 02 16:00 255.8 0.0 0.00 85.7 29.8 40.41 n/a
2023 06 02 17:00 255.6 0.0 0.00 85.7 29.8 40.1 n/a
2023 06 02 18:00 256.1 0.0 0.00 84.4 29.1 42.63 n/a
2023 06 02 19:00 256.1 0.0 0.00 83.9 28.8 45.31 n/a
2023 06 02 20:00 257.2 0.0 0.00 78.3 25.8 53 n/a
2023 06 02 21:00 Wet 376.7 0.1 3.05 72.4 22.5 71.47 n/a
2023 06 02 22:00 Wet 313.8 0.0 0.00 68.7 20.4 86.7 n/a
2023 06 02 23:00 Wet 315.0 0.0 0.00 68.1 20.1 88.4 n/a
2023 06 02 24:00 Wet 314.3 0.0 0.00 67.8 19.9 88.7 n/a
2023 06 03 1:00 Wet 347.1 0.0 0.00 66.7 19.3 94 n/a
2023 06 03 2:00 Wet 352.2 0.0 0.00 66.3 19.1 92.2 n/a
2023 06 03 3:00 Wet 355.3 0.0 0.00 65.6 18.7 90 n/a
2023 06 03 4:00 Wet 368.8 0.0 0.00 64.8 18.2 89.4 n/a
2023 06 03 5:00 Wet 352.7 0.0 0.00 64.4 18.0 89.4 n/a
2023 06 03 6:00 Wet 323.6 0.0 0.00 64.6 18.1 88.5 n/a
2023 06 03 7:00 260.6 0.0 0.00 67.4 19.7 84 n/a
2023 06 03 8:00 260.2 0.0 0.00 69.5 20.8 81.2 n/a
2023 06 03 9:00 258.4 0.0 0.00 72.9 22.7 75.09 n/a
2023 06 03 10:00 256.4 0.0 0.00 78.3 25.7 63.23 n/a
2023 06 03 11:00 255.7 0.0 0.00 81.1 27.3 56.56 n/a
2023 06 03 12:00 255.3 0.0 0.00 83.2 28.4 49.23 n/a
2023 06 03 13:00 254.7 0.0 0.00 84.7 29.3 38.71 n/a
2023 06 03 14:00 254.5 0.0 0.00 85.7 29.8 31.19 n/a
2023 06 03 15:00 255.0 0.0 0.00 86.3 30.1 31.3 n/a
2023 06 03 16:00 254.8 0.0 0.00 86.3 30.1 28.25 n/a
2023 06 03 17:00 254.5 0.0 0.00 85.9 30.0 26.88 n/a
2023 06 03 18:00 254.6 0.0 0.00 84.3 29.1 32.2 n/a
2023 06 03 19:00 256.9 0.0 0.00 77.5 25.3 59.96 n/a
2023 06 03 20:00 259.1 0.0 0.00 74.0 23.4 67.72 n/a
2023 06 03 21:00 261.9 0.0 0.00 71.4 21.9 74.16 n/a
2023 06 03 22:00 269.8 0.0 0.00 69.3 20.7 80.1 n/a
2023 06 03 23:00 269.2 0.0 0.00 68.4 20.2 80.9 n/a
2023 06 03 24:00 Wet 290.0 0.0 0.00 66.5 19.1 84.3 n/a
2023 06 04 1:00 280.3 0.0 0.00 66.4 19.1 81.3 n/a
2023 06 04 2:00 Wet 286.2 0.0 0.00 65.1 18.4 83.8 n/a
2023 06 04 3:00 Wet 296.3 0.0 0.00 64.5 18.1 84.8 n/a
2023 06 04 4:00 Wet 309.8 0.0 0.00 63.5 17.5 83.9 n/a
2023 06 04 5:00 267.8 0.0 0.00 63.4 17.5 78.67 n/a
2023 06 04 6:00 264.5 0.0 0.00 62.3 16.9 81 n/a
2023 06 04 7:00 259.1 0.0 0.00 66.3 19.1 69.86 n/a
2023 06 04 8:00 256.7 0.0 0.00 72.5 22.5 60.09 n/a
2023 06 04 9:00 255.4 0.0 0.00 77.8 25.4 53.03 n/a
2023 06 04 10:00 254.4 0.0 0.00 81.9 27.7 42.93 n/a
2023 06 04 11:00 253.9 0.0 0.00 84.0 28.9 38.88 n/a
2023 06 04 12:00 253.6 0.0 0.00 85.3 29.6 33.34 n/a
2023 06 04 13:00 253.7 0.0 0.00 85.8 29.9 31.6 n/a
2023 06 04 14:00 253.6 0.0 0.00 86.4 30.2 30.49 n/a
2023 06 04 15:00 254.1 0.0 0.00 86.6 30.3 29.02 n/a
2023 06 04 16:00 254.1 0.0 0.00 87.2 30.7 28.16 n/a
2023 06 04 17:00 253.8 0.0 0.00 87.8 31.0 28.11 n/a
2023 06 04 18:00 254.5 0.0 0.00 84.8 29.3 31.72 n/a
2023 06 04 19:00 271.7 0.0 0.00 80.8 27.1 34.98 n/a
2023 06 04 20:00 257.0 0.0 0.00 77.1 25.0 47.41 n/a
2023 06 04 21:00 257.6 0.0 0.00 74.0 23.3 53.34 n/a
2023 06 04 22:00 258.2 0.0 0.00 72.0 22.2 57.87 n/a
2023 06 04 23:00 259.1 0.0 0.00 69.8 21.0 63.69 n/a
2023 06 04 24:00 258.8 0.0 0.00 70.1 21.2 62.56 n/a
2023 06 05 1:00 259.3 0.0 0.00 69.7 20.9 63.78 n/a
2023 06 05 2:00 259.3 0.0 0.00 68.6 20.3 67.27 n/a
2023 06 05 3:00 259.6 0.0 0.00 67.5 19.7 71.13 n/a
2023 06 05 4:00 260.0 0.0 0.00 66.8 19.3 73.36 n/a
2023 06 05 5:00 261.6 0.0 0.00 65.7 18.7 76.13 n/a
2023 06 05 6:00 261.0 0.0 0.00 65.2 18.4 78.3 n/a
2023 06 05 7:00 258.5 0.0 0.00 67.9 19.9 74.08 n/a
2023 06 05 8:00 257.0 0.0 0.00 72.3 22.4 68.29 n/a
2023 06 05 9:00 256.0 0.0 0.00 75.8 24.3 63.32 n/a
2023 06 05 10:00 255.1 0.0 0.00 79.5 26.4 57.65 n/a
2023 06 05 11:00 254.6 0.0 0.00 82.0 27.8 51.19 n/a
2023 06 05 12:00 254.3 0.0 0.00 83.7 28.7 46.51 n/a
2023 06 05 13:00 263.3 0.0 0.00 83.2 28.4 45.65 n/a
2023 06 05 14:00 255.5 0.0 0.00 82.3 27.9 45.63 n/a
2023 06 05 15:00 Wet 347.4 0.1 3.30 74.9 23.8 57.1 n/a
2023 06 05 16:00 Wet 350.1 0.0 0.51 66.3 19.0 76.4 n/a
2023 06 05 17:00 Wet 446.6 0.0 0.51 68.1 20.0 79.26 n/a
2023 06 05 18:00 274.9 0.0 0.00 73.1 22.8 67.94 n/a
2023 06 05 19:00 259.3 0.0 0.00 73.2 22.9 69.02 n/a
2023 06 05 20:00 259.6 0.0 0.00 71.6 22.0 67.92 n/a
2023 06 05 21:00 259.8 0.0 0.00 71.6 22.0 67.84 n/a
2023 06 05 22:00 261.3 0.0 0.00 69.7 21.0 73.08 n/a
2023 06 05 23:00 263.9 0.0 0.00 67.7 19.9 78.02 n/a
2023 06 05 24:00 265.7 0.0 0.00 67.0 19.4 80.9 n/a
2023 06 06 1:00 Wet 304.2 0.0 0.00 64.6 18.1 84.9 n/a
2023 06 06 2:00 Wet 307.2 0.0 0.00 63.6 17.6 80.1 n/a
2023 06 06 3:00 262.0 0.0 0.00 63.8 17.7 71.73 n/a
2023 06 06 4:00 266.1 0.0 0.00 61.8 16.5 77.59 n/a
2023 06 06 5:00 268.3 0.0 0.00 60.4 15.8 81.3 n/a
2023 06 06 6:00 261.7 0.0 0.00 61.6 16.4 75.92 n/a
2023 06 06 7:00 259.0 0.0 0.00 64.1 17.9 70.87 n/a
2023 06 06 8:00 257.0 0.0 0.00 69.2 20.7 60.9 n/a
2023 06 06 9:00 255.9 0.0 0.00 72.4 22.4 59.59 n/a
2023 06 06 10:00 254.6 0.0 0.00 75.8 24.3 50.87 n/a
2023 06 06 11:00 253.9 0.0 0.00 78.6 25.9 45.95 n/a
2023 06 06 12:00 253.7 0.0 0.00 80.4 26.9 43.08 n/a
2023 06 06 13:00 254.2 0.0 0.00 81.5 27.5 43.31 n/a
2023 06 06 14:00 254.4 0.0 0.00 82.3 28.0 41.85 n/a
2023 06 06 15:00 255.1 0.0 0.00 83.3 28.5 41.25 n/a
2023 06 06 16:00 255.2 0.0 0.00 83.5 28.6 40.95 n/a
2023 06 06 17:00 255.2 0.0 0.00 83.8 28.8 41.06 n/a
2023 06 06 18:00 255.2 0.0 0.00 83.6 28.7 41.01 n/a
2023 06 06 19:00 255.7 0.0 0.00 82.3 27.9 44.1 n/a
2023 06 06 20:00 257.0 0.0 0.00 78.8 26.0 49.21 n/a
2023 06 06 21:00 258.7 0.0 0.00 74.8 23.8 59.99 n/a
2023 06 06 22:00 259.3 0.0 0.00 72.6 22.6 63.07 n/a
2023 06 06 23:00 260.4 0.0 0.00 70.5 21.4 69.04 n/a
2023 06 06 24:00 260.8 0.0 0.00 69.0 20.6 69.76 n/a
2023 06 07 1:00 260.9 0.0 0.00 67.6 19.8 70.59 n/a
2023 06 07 2:00 263.5 0.0 0.00 65.7 18.7 76.51 n/a
2023 06 07 3:00 266.6 0.0 0.00 64.8 18.2 79.64 n/a
2023 06 07 4:00 282.3 0.0 0.00 63.4 17.4 84.7 n/a
2023 06 07 5:00 Wet 321.9 0.0 0.00 62.0 16.7 88.7 n/a
2023 06 07 6:00 Wet 361.1 0.0 0.00 62.2 16.8 92.3 n/a
2023 06 07 7:00 280.1 0.0 0.00 65.5 18.6 87.3 n/a
2023 06 07 8:00 257.3 0.0 0.00 71.0 21.6 72.58 n/a
2023 06 07 9:00 256.2 0.0 0.00 76.0 24.4 64.14 n/a
2023 06 07 10:00 255.1 0.0 0.00 80.3 26.8 53.39 n/a
2023 06 07 11:00 254.3 0.0 0.00 82.9 28.3 44.86 n/a
2023 06 07 12:00 254.1 0.0 0.00 84.2 29.0 42.58 n/a
2023 06 07 13:00 254.2 0.0 0.00 85.1 29.5 41.38 n/a
2023 06 07 14:00 253.9 0.0 0.00 86.4 30.2 36.73 n/a
2023 06 07 15:00 254.5 0.0 0.00 87.3 30.7 35.92 n/a
2023 06 07 16:00 254.6 0.0 0.00 87.3 30.8 35.62 n/a
2023 06 07 17:00 254.4 0.0 0.00 87.2 30.7 35.69 n/a
2023 06 07 18:00 254.7 0.0 0.00 86.2 30.1 38.28 n/a
2023 06 07 19:00 255.4 0.0 0.00 84.1 28.9 42.88 n/a
2023 06 07 20:00 256.8 0.0 0.00 79.6 26.4 51.52 n/a
2023 06 07 21:00 257.9 0.0 0.00 76.7 24.8 57.66 n/a
2023 06 07 22:00 258.5 0.0 0.00 74.5 23.6 62.32 n/a
2023 06 07 23:00 259.5 0.0 0.00 72.0 22.2 68.97 n/a
2023 06 07 24:00 259.2 0.0 0.00 72.3 22.4 68.44 n/a
2023 06 08 1:00 259.3 0.0 0.00 72.0 22.2 71.63 n/a
2023 06 08 2:00 260.0 0.0 0.00 71.2 21.8 74.27 n/a
2023 06 08 3:00 260.2 0.0 0.00 70.5 21.4 76.52 n/a
2023 06 08 4:00 260.8 0.0 0.00 69.0 20.6 81.1 n/a
2023 06 08 5:00 262.0 0.0 0.00 68.2 20.1 83.3 n/a
2023 06 08 6:00 262.5 0.0 0.00 68.2 20.1 84.2 n/a
2023 06 08 7:00 260.8 0.0 0.00 69.1 20.6 82 n/a
2023 06 08 8:00 259.7 0.0 0.00 70.4 21.3 78.53 n/a
2023 06 08 9:00 259.5 0.0 0.00 70.8 21.6 77.62 n/a
2023 06 08 10:00 260.3 0.0 0.00 70.0 21.1 78.77 n/a
2023 06 08 11:00 257.9 0.0 0.00 72.8 22.7 73.25 n/a
2023 06 08 12:00 258.4 0.0 0.00 74.5 23.6 70.89 n/a
2023 06 08 13:00 275.5 0.0 0.00 74.4 23.6 72.52 n/a
2023 06 08 14:00 257.8 0.0 0.00 76.7 24.8 68.31 n/a
2023 06 08 15:00 257.8 0.0 0.00 76.9 25.0 64.19 n/a
2023 06 08 16:00 257.4 0.0 0.00 77.2 25.1 59.21 n/a
2023 06 08 17:00 258.0 0.0 0.00 76.4 24.6 64.55 n/a
2023 06 08 18:00 258.6 0.0 0.00 75.1 23.9 67.83 n/a
2023 06 08 19:00 258.9 0.0 0.00 74.2 23.5 69.96 n/a
2023 06 08 20:00 259.3 0.0 0.00 71.9 22.2 69.06 n/a
2023 06 08 21:00 259.3 0.0 0.00 69.4 20.8 65.67 n/a
2023 06 08 22:00 259.3 0.0 0.00 66.9 19.4 64.81 n/a
2023 06 08 23:00 259.3 0.0 0.00 65.9 18.9 65.69 n/a
2023 06 08 24:00 259.3 0.0 0.00 65.3 18.5 67.39 n/a
2023 06 09 1:00 259.3 0.0 0.00 64.8 18.2 69.15 n/a
2023 06 09 2:00 259.7 0.0 0.00 64.1 17.8 71.54 n/a
2023 06 09 3:00 259.7 0.0 0.00 63.8 17.6 71.48 n/a
2023 06 09 4:00 259.9 0.0 0.00 63.5 17.5 70.42 n/a
2023 06 09 5:00 259.7 0.0 0.00 63.3 17.4 68.29 n/a
2023 06 09 6:00 259.3 0.0 0.00 63.4 17.4 67.13 n/a
2023 06 09 7:00 258.3 0.0 0.00 65.3 18.5 60.21 n/a
2023 06 09 8:00 256.6 0.0 0.00 67.8 19.9 55.27 n/a
2023 06 09 9:00 255.8 0.0 0.00 71.0 21.7 51.47 n/a
2023 06 09 10:00 255.4 0.0 0.00 73.0 22.8 49.87 n/a
2023 06 09 11:00 255.0 0.0 0.00 75.1 24.0 49.45 n/a
2023 06 09 12:00 254.8 0.0 0.00 76.8 24.9 47.85 n/a
2023 06 09 13:00 254.9 0.0 0.00 78.3 25.7 46.2 n/a
2023 06 09 14:00 255.1 0.0 0.00 79.9 26.6 45.8 n/a
2023 06 09 15:00 255.7 0.0 0.00 80.3 26.8 45.23 n/a
2023 06 09 16:00 255.8 0.0 0.00 80.9 27.2 44.67 n/a
2023 06 09 17:00 255.6 0.0 0.00 81.3 27.4 43.56 n/a
2023 06 09 18:00 255.9 0.0 0.00 80.3 26.8 45.14 n/a
CST mV in mm F C % mph
Year Month Day Hour Leaf Wetness Total
Precipitation
Avg. Temp Avg. Rel.
Humidity
Wind
Speed

Back to the top of the page